Schulugsraum in Feldgeding (bis 6 Teilnehmer)

Schulugsraum in Gröbenzell (ab 5 Teilnehmer)

Flugwetter Augsburg

[source: ADDS]
METAR
EDMA 171550Z 23004KT 9999 -RA FEW015 OVC055 08/07 Q1019 =
TAF EDMA 171400Z 1715/1724 28010KT 9999 SCT010 BKN020 TEMPO 1715/1721 BKN012 PROB30 TEMPO 1715/1721 RA
TAF
TAF EDMA 171400Z 1715/1724 28010KT 9999 SCT010 BKN020 TEMPO 1715/1721 BKN012 PROB30 TEMPO 1715/1721 RA =
Cookies erleichtern die Bereitstellung unserer Dienste. Mit der Nutzung unserer Dienste erklären Sie sich damit einverstanden, dass wir Cookies verwenden.
Weitere Informationen Ok